sensor_id;sensor_type;location;lat;lon;timestamp;P1;durP1;ratioP1;P2;durP2;ratioP2
7737;SDS011;29398;45.328;5.558;2023-08-06T00:00:54;1.27;;;0.95;;
7737;SDS011;29398;45.328;5.558;2023-08-06T00:01:55;1.30;;;1.00;;
7737;SDS011;29398;45.328;5.558;2023-08-06T00:02:57;1.90;;;1.15;;
7737;SDS011;29398;45.328;5.558;2023-08-06T00:03:58;1.00;;;0.90;;
7737;SDS011;29398;45.328;5.558;2023-08-06T00:05:01;0.88;;;0.88;;
7737;SDS011;29398;45.328;5.558;2023-08-06T00:06:04;1.35;;;1.13;;
7737;SDS011;29398;45.328;5.558;2023-08-06T00:07:06;1.73;;;1.10;;
7737;SDS011;29398;45.328;5.558;2023-08-06T00:08:07;1.58;;;1.08;;
7737;SDS011;29398;45.328;5.558;2023-08-06T00:09:10;1.35;;;0.98;;
7737;SDS011;29398;45.328;5.558;2023-08-06T00:10:11;2.90;;;1.30;;
7737;SDS011;29398;45.328;5.558;2023-08-06T00:11:13;1.17;;;1.00;;
7737;SDS011;29398;45.328;5.558;2023-08-06T00:12:14;1.70;;;1.20;;
7737;SDS011;29398;45.328;5.558;2023-08-06T00:13:17;1.38;;;1.00;;
7737;SDS011;29398;45.328;5.558;2023-08-06T00:14:18;2.05;;;1.40;;
7737;SDS011;29398;45.328;5.558;2023-08-06T00:15:20;1.40;;;1.30;;
7737;SDS011;29398;45.328;5.558;2023-08-06T00:16:22;1.63;;;1.10;;
7737;SDS011;29398;45.328;5.558;2023-08-06T00:17:24;1.88;;;1.30;;
7737;SDS011;29398;45.328;5.558;2023-08-06T00:18:25;1.88;;;1.48;;
7737;SDS011;29398;45.328;5.558;2023-08-06T00:19:27;1.92;;;1.30;;
7737;SDS011;29398;45.328;5.558;2023-08-06T00:20:28;1.45;;;1.35;;
7737;SDS011;29398;45.328;5.558;2023-08-06T00:21:30;1.40;;;1.30;;
7737;SDS011;29398;45.328;5.558;2023-08-06T00:22:32;1.75;;;1.42;;
7737;SDS011;29398;45.328;5.558;2023-08-06T00:23:34;1.80;;;1.40;;
7737;SDS011;29398;45.328;5.558;2023-08-06T00:24:36;2.97;;;1.73;;
7737;SDS011;29398;45.328;5.558;2023-08-06T00:25:37;1.70;;;1.38;;
7737;SDS011;29398;45.328;5.558;2023-08-06T00:26:39;1.35;;;1.23;;
7737;SDS011;29398;45.328;5.558;2023-08-06T00:27:40;1.98;;;1.20;;
7737;SDS011;29398;45.328;5.558;2023-08-06T00:28:43;1.80;;;1.42;;
7737;SDS011;29398;45.328;5.558;2023-08-06T00:29:44;1.50;;;1.40;;
7737;SDS011;29398;45.328;5.558;2023-08-06T00:30:51;2.35;;;1.40;;
7737;SDS011;29398;45.328;5.558;2023-08-06T00:31:53;2.92;;;1.80;;
7737;SDS011;29398;45.328;5.558;2023-08-06T00:32:55;1.70;;;1.52;;
7737;SDS011;29398;45.328;5.558;2023-08-06T00:33:56;2.67;;;1.90;;
7737;SDS011;29398;45.328;5.558;2023-08-06T00:34:58;2.75;;;1.70;;
7737;SDS011;29398;45.328;5.558;2023-08-06T00:35:59;2.45;;;1.88;;
7737;SDS011;29398;45.328;5.558;2023-08-06T00:37:01;4.05;;;2.28;;
7737;SDS011;29398;45.328;5.558;2023-08-06T00:38:03;3.17;;;1.90;;
7737;SDS011;29398;45.328;5.558;2023-08-06T00:39:05;2.17;;;1.95;;
7737;SDS011;29398;45.328;5.558;2023-08-06T00:40:07;2.22;;;1.70;;
7737;SDS011;29398;45.328;5.558;2023-08-06T00:41:09;2.47;;;1.80;;
7737;SDS011;29398;45.328;5.558;2023-08-06T00:42:11;2.10;;;1.70;;
7737;SDS011;29398;45.328;5.558;2023-08-06T00:43:13;3.78;;;1.92;;
7737;SDS011;29398;45.328;5.558;2023-08-06T00:44:15;2.53;;;2.10;;
7737;SDS011;29398;45.328;5.558;2023-08-06T00:45:17;2.00;;;1.80;;
7737;SDS011;29398;45.328;5.558;2023-08-06T00:46:18;1.70;;;1.60;;
7737;SDS011;29398;45.328;5.558;2023-08-06T00:47:21;2.15;;;1.80;;
7737;SDS011;29398;45.328;5.558;2023-08-06T00:48:22;1.98;;;1.83;;
7737;SDS011;29398;45.328;5.558;2023-08-06T00:49:24;2.42;;;1.92;;
7737;SDS011;29398;45.328;5.558;2023-08-06T00:50:25;2.60;;;1.92;;
7737;SDS011;29398;45.328;5.558;2023-08-06T00:51:27;3.95;;;1.70;;
7737;SDS011;29398;45.328;5.558;2023-08-06T00:52:28;4.00;;;2.08;;
7737;SDS011;29398;45.328;5.558;2023-08-06T00:53:30;4.22;;;1.95;;
7737;SDS011;29398;45.328;5.558;2023-08-06T00:54:31;2.20;;;1.60;;
7737;SDS011;29398;45.328;5.558;2023-08-06T00:55:35;3.58;;;1.73;;
7737;SDS011;29398;45.328;5.558;2023-08-06T00:56:36;2.22;;;1.70;;
7737;SDS011;29398;45.328;5.558;2023-08-06T00:57:38;2.75;;;1.70;;
7737;SDS011;29398;45.328;5.558;2023-08-06T00:58:39;1.88;;;1.40;;
7737;SDS011;29398;45.328;5.558;2023-08-06T00:59:44;1.80;;;1.60;;
7737;SDS011;29398;45.328;5.558;2023-08-06T01:00:46;2.83;;;1.60;;
7737;SDS011;29398;45.328;5.558;2023-08-06T01:01:49;3.33;;;2.15;;
7737;SDS011;29398;45.328;5.558;2023-08-06T01:02:50;3.17;;;1.80;;
7737;SDS011;29398;45.328;5.558;2023-08-06T01:03:53;2.25;;;1.50;;
7737;SDS011;29398;45.328;5.558;2023-08-06T01:04:54;1.83;;;1.35;;
7737;SDS011;29398;45.328;5.558;2023-08-06T01:05:56;2.35;;;1.70;;
7737;SDS011;29398;45.328;5.558;2023-08-06T01:07:01;2.25;;;1.40;;
7737;SDS011;29398;45.328;5.558;2023-08-06T01:08:19;2.83;;;1.65;;
7737;SDS011;29398;45.328;5.558;2023-08-06T01:09:31;2.78;;;1.88;;
7737;SDS011;29398;45.328;5.558;2023-08-06T01:10:44;2.78;;;2.05;;
7737;SDS011;29398;45.328;5.558;2023-08-06T01:11:59;3.20;;;1.83;;
7737;SDS011;29398;45.328;5.558;2023-08-06T01:13:08;2.17;;;1.95;;
7737;SDS011;29398;45.328;5.558;2023-08-06T01:14:18;3.25;;;2.15;;
7737;SDS011;29398;45.328;5.558;2023-08-06T01:15:30;3.50;;;1.92;;
7737;SDS011;29398;45.328;5.558;2023-08-06T01:16:35;2.92;;;1.90;;
7737;SDS011;29398;45.328;5.558;2023-08-06T01:17:39;3.67;;;1.95;;
7737;SDS011;29398;45.328;5.558;2023-08-06T01:18:41;2.03;;;1.60;;
7737;SDS011;29398;45.328;5.558;2023-08-06T01:19:46;3.50;;;2.03;;
7737;SDS011;29398;45.328;5.558;2023-08-06T01:20:48;3.83;;;1.80;;
7737;SDS011;29398;45.328;5.558;2023-08-06T01:21:51;2.47;;;2.03;;
7737;SDS011;29398;45.328;5.558;2023-08-06T01:22:52;1.95;;;1.75;;
7737;SDS011;29398;45.328;5.558;2023-08-06T01:23:54;2.88;;;1.80;;
7737;SDS011;29398;45.328;5.558;2023-08-06T01:24:55;2.00;;;1.60;;
7737;SDS011;29398;45.328;5.558;2023-08-06T01:25:59;4.72;;;1.80;;
7737;SDS011;29398;45.328;5.558;2023-08-06T01:27:08;3.25;;;1.70;;
7737;SDS011;29398;45.328;5.558;2023-08-06T01:28:17;2.08;;;1.88;;
7737;SDS011;29398;45.328;5.558;2023-08-06T01:29:24;2.10;;;1.80;;
7737;SDS011;29398;45.328;5.558;2023-08-06T01:30:32;2.70;;;1.88;;
7737;SDS011;29398;45.328;5.558;2023-08-06T01:31:40;2.65;;;1.50;;
7737;SDS011;29398;45.328;5.558;2023-08-06T01:32:45;2.58;;;1.80;;
7737;SDS011;29398;45.328;5.558;2023-08-06T01:33:49;2.22;;;1.90;;
7737;SDS011;29398;45.328;5.558;2023-08-06T01:34:54;2.40;;;1.77;;
7737;SDS011;29398;45.328;5.558;2023-08-06T01:35:57;2.30;;;1.67;;
7737;SDS011;29398;45.328;5.558;2023-08-06T01:37:00;2.65;;;1.55;;
7737;SDS011;29398;45.328;5.558;2023-08-06T01:38:01;3.03;;;1.80;;
7737;SDS011;29398;45.328;5.558;2023-08-06T01:39:05;3.40;;;1.90;;
7737;SDS011;29398;45.328;5.558;2023-08-06T01:40:06;3.20;;;1.70;;
7737;SDS011;29398;45.328;5.558;2023-08-06T01:41:11;1.90;;;1.63;;
7737;SDS011;29398;45.328;5.558;2023-08-06T01:42:12;2.63;;;1.77;;
7737;SDS011;29398;45.328;5.558;2023-08-06T01:43:14;1.95;;;1.52;;
7737;SDS011;29398;45.328;5.558;2023-08-06T01:44:16;2.78;;;1.65;;
7737;SDS011;29398;45.328;5.558;2023-08-06T01:45:17;1.98;;;1.60;;
7737;SDS011;29398;45.328;5.558;2023-08-06T01:46:19;3.42;;;1.90;;
7737;SDS011;29398;45.328;5.558;2023-08-06T01:47:21;1.70;;;1.42;;
7737;SDS011;29398;45.328;5.558;2023-08-06T01:48:23;2.35;;;1.77;;
7737;SDS011;29398;45.328;5.558;2023-08-06T01:49:24;1.40;;;1.30;;
7737;SDS011;29398;45.328;5.558;2023-08-06T01:50:28;1.50;;;1.40;;
7737;SDS011;29398;45.328;5.558;2023-08-06T01:51:30;1.77;;;1.67;;
7737;SDS011;29398;45.328;5.558;2023-08-06T01:52:32;2.70;;;1.55;;
7737;SDS011;29398;45.328;5.558;2023-08-06T01:53:33;2.58;;;1.23;;
7737;SDS011;29398;45.328;5.558;2023-08-06T01:54:36;2.72;;;1.55;;
7737;SDS011;29398;45.328;5.558;2023-08-06T01:55:38;1.42;;;1.20;;
7737;SDS011;29398;45.328;5.558;2023-08-06T01:56:40;2.08;;;1.33;;
7737;SDS011;29398;45.328;5.558;2023-08-06T01:57:41;1.20;;;1.10;;
7737;SDS011;29398;45.328;5.558;2023-08-06T01:58:43;2.30;;;1.15;;
7737;SDS011;29398;45.328;5.558;2023-08-06T01:59:44;1.33;;;1.10;;
7737;SDS011;29398;45.328;5.558;2023-08-06T02:00:47;2.60;;;1.17;;
7737;SDS011;29398;45.328;5.558;2023-08-06T02:01:48;2.40;;;1.25;;
7737;SDS011;29398;45.328;5.558;2023-08-06T02:02:50;3.08;;;1.60;;
7737;SDS011;29398;45.328;5.558;2023-08-06T02:03:51;1.70;;;1.30;;
7737;SDS011;29398;45.328;5.558;2023-08-06T02:04:52;1.20;;;1.10;;
7737;SDS011;29398;45.328;5.558;2023-08-06T02:05:55;1.33;;;1.10;;
7737;SDS011;29398;45.328;5.558;2023-08-06T02:06:57;3.47;;;1.23;;
7737;SDS011;29398;45.328;5.558;2023-08-06T02:07:59;0.98;;;0.93;;
7737;SDS011;29398;45.328;5.558;2023-08-06T02:09:00;1.35;;;1.25;;
7737;SDS011;29398;45.328;5.558;2023-08-06T02:10:03;1.63;;;1.15;;
7737;SDS011;29398;45.328;5.558;2023-08-06T02:11:04;1.92;;;1.20;;
7737;SDS011;29398;45.328;5.558;2023-08-06T02:12:06;1.70;;;1.40;;
7737;SDS011;29398;45.328;5.558;2023-08-06T02:13:08;2.58;;;1.58;;
7737;SDS011;29398;45.328;5.558;2023-08-06T02:14:10;3.67;;;1.60;;
7737;SDS011;29398;45.328;5.558;2023-08-06T02:15:13;2.40;;;1.60;;
7737;SDS011;29398;45.328;5.558;2023-08-06T02:16:16;2.75;;;1.50;;
7737;SDS011;29398;45.328;5.558;2023-08-06T02:17:17;3.10;;;1.88;;
7737;SDS011;29398;45.328;5.558;2023-08-06T02:18:19;3.05;;;1.80;;
7737;SDS011;29398;45.328;5.558;2023-08-06T02:19:20;2.75;;;1.73;;
7737;SDS011;29398;45.328;5.558;2023-08-06T02:20:22;2.80;;;2.00;;
7737;SDS011;29398;45.328;5.558;2023-08-06T02:21:23;4.28;;;2.40;;
7737;SDS011;29398;45.328;5.558;2023-08-06T02:22:26;4.70;;;2.55;;
7737;SDS011;29398;45.328;5.558;2023-08-06T02:23:28;3.90;;;2.30;;
7737;SDS011;29398;45.328;5.558;2023-08-06T02:24:29;3.35;;;2.40;;
7737;SDS011;29398;45.328;5.558;2023-08-06T02:25:32;3.17;;;2.38;;
7737;SDS011;29398;45.328;5.558;2023-08-06T02:26:34;3.53;;;2.53;;
7737;SDS011;29398;45.328;5.558;2023-08-06T02:27:36;4.05;;;2.22;;
7737;SDS011;29398;45.328;5.558;2023-08-06T02:28:38;3.47;;;2.00;;
7737;SDS011;29398;45.328;5.558;2023-08-06T02:29:40;2.85;;;2.22;;
7737;SDS011;29398;45.328;5.558;2023-08-06T02:30:49;2.90;;;2.13;;
7737;SDS011;29398;45.328;5.558;2023-08-06T02:31:51;3.75;;;2.40;;
7737;SDS011;29398;45.328;5.558;2023-08-06T02:32:52;3.95;;;2.33;;
7737;SDS011;29398;45.328;5.558;2023-08-06T02:33:54;4.47;;;2.47;;
7737;SDS011;29398;45.328;5.558;2023-08-06T02:34:55;3.35;;;2.40;;
7737;SDS011;29398;45.328;5.558;2023-08-06T02:36:01;3.88;;;2.53;;
7737;SDS011;29398;45.328;5.558;2023-08-06T02:37:04;2.40;;;2.15;;
7737;SDS011;29398;45.328;5.558;2023-08-06T02:38:07;2.80;;;2.25;;
7737;SDS011;29398;45.328;5.558;2023-08-06T02:39:08;4.32;;;2.45;;
7737;SDS011;29398;45.328;5.558;2023-08-06T02:40:10;6.38;;;2.42;;
7737;SDS011;29398;45.328;5.558;2023-08-06T02:41:12;3.25;;;2.40;;
7737;SDS011;29398;45.328;5.558;2023-08-06T02:42:13;6.70;;;2.60;;
7737;SDS011;29398;45.328;5.558;2023-08-06T02:43:15;2.92;;;2.28;;
7737;SDS011;29398;45.328;5.558;2023-08-06T02:44:17;4.10;;;2.33;;
7737;SDS011;29398;45.328;5.558;2023-08-06T02:45:20;3.13;;;2.13;;
7737;SDS011;29398;45.328;5.558;2023-08-06T02:46:23;3.40;;;2.25;;
7737;SDS011;29398;45.328;5.558;2023-08-06T02:47:25;4.57;;;2.35;;
7737;SDS011;29398;45.328;5.558;2023-08-06T02:48:26;4.47;;;2.20;;
7737;SDS011;29398;45.328;5.558;2023-08-06T02:49:28;4.10;;;2.30;;
7737;SDS011;29398;45.328;5.558;2023-08-06T02:50:30;3.65;;;2.00;;
7737;SDS011;29398;45.328;5.558;2023-08-06T02:51:32;4.13;;;2.50;;
7737;SDS011;29398;45.328;5.558;2023-08-06T02:52:33;3.17;;;2.20;;
7737;SDS011;29398;45.328;5.558;2023-08-06T02:53:37;2.30;;;1.88;;
7737;SDS011;29398;45.328;5.558;2023-08-06T02:54:42;2.22;;;1.90;;
7737;SDS011;29398;45.328;5.558;2023-08-06T02:55:46;3.55;;;2.40;;
7737;SDS011;29398;45.328;5.558;2023-08-06T02:56:50;4.00;;;2.13;;
7737;SDS011;29398;45.328;5.558;2023-08-06T02:58:01;4.22;;;2.25;;
7737;SDS011;29398;45.328;5.558;2023-08-06T02:59:08;2.90;;;2.05;;
7737;SDS011;29398;45.328;5.558;2023-08-06T03:00:29;2.25;;;1.85;;
7737;SDS011;29398;45.328;5.558;2023-08-06T03:01:30;3.95;;;2.53;;
7737;SDS011;29398;45.328;5.558;2023-08-06T03:02:40;3.67;;;2.28;;
7737;SDS011;29398;45.328;5.558;2023-08-06T03:03:55;4.65;;;2.25;;
7737;SDS011;29398;45.328;5.558;2023-08-06T03:05:04;3.35;;;2.30;;
7737;SDS011;29398;45.328;5.558;2023-08-06T03:06:10;4.82;;;2.03;;
7737;SDS011;29398;45.328;5.558;2023-08-06T03:07:19;3.47;;;1.75;;
7737;SDS011;29398;45.328;5.558;2023-08-06T03:08:27;3.70;;;2.10;;
7737;SDS011;29398;45.328;5.558;2023-08-06T03:09:31;2.40;;;2.20;;
7737;SDS011;29398;45.328;5.558;2023-08-06T03:10:32;3.08;;;1.85;;
7737;SDS011;29398;45.328;5.558;2023-08-06T03:11:37;1.75;;;1.55;;
7737;SDS011;29398;45.328;5.558;2023-08-06T03:12:43;1.98;;;1.63;;
7737;SDS011;29398;45.328;5.558;2023-08-06T03:13:45;2.25;;;1.75;;
7737;SDS011;29398;45.328;5.558;2023-08-06T03:14:47;1.55;;;1.42;;
7737;SDS011;29398;45.328;5.558;2023-08-06T03:15:52;2.40;;;1.30;;
7737;SDS011;29398;45.328;5.558;2023-08-06T03:16:54;1.77;;;1.10;;
7737;SDS011;29398;45.328;5.558;2023-08-06T03:17:56;1.65;;;1.40;;
7737;SDS011;29398;45.328;5.558;2023-08-06T03:18:58;1.15;;;1.02;;
7737;SDS011;29398;45.328;5.558;2023-08-06T03:20:00;1.45;;;0.93;;
7737;SDS011;29398;45.328;5.558;2023-08-06T03:21:03;1.08;;;0.98;;
7737;SDS011;29398;45.328;5.558;2023-08-06T03:22:05;1.13;;;0.98;;
7737;SDS011;29398;45.328;5.558;2023-08-06T03:23:08;1.30;;;1.00;;
7737;SDS011;29398;45.328;5.558;2023-08-06T03:24:11;1.73;;;1.10;;
7737;SDS011;29398;45.328;5.558;2023-08-06T03:25:16;1.00;;;1.00;;
7737;SDS011;29398;45.328;5.558;2023-08-06T03:26:21;1.30;;;1.00;;
7737;SDS011;29398;45.328;5.558;2023-08-06T03:27:22;1.38;;;1.20;;
7737;SDS011;29398;45.328;5.558;2023-08-06T03:28:26;1.55;;;1.00;;
7737;SDS011;29398;45.328;5.558;2023-08-06T03:29:28;1.40;;;1.13;;
7737;SDS011;29398;45.328;5.558;2023-08-06T03:30:34;1.30;;;1.05;;
7737;SDS011;29398;45.328;5.558;2023-08-06T03:31:35;1.23;;;1.13;;
7737;SDS011;29398;45.328;5.558;2023-08-06T03:32:38;2.45;;;1.02;;
7737;SDS011;29398;45.328;5.558;2023-08-06T03:33:39;1.83;;;1.15;;
7737;SDS011;29398;45.328;5.558;2023-08-06T03:34:47;1.33;;;1.13;;
7737;SDS011;29398;45.328;5.558;2023-08-06T03:35:49;1.23;;;1.05;;
7737;SDS011;29398;45.328;5.558;2023-08-06T03:36:53;2.30;;;1.50;;
7737;SDS011;29398;45.328;5.558;2023-08-06T03:37:55;2.40;;;1.38;;
7737;SDS011;29398;45.328;5.558;2023-08-06T03:38:56;2.33;;;1.50;;
7737;SDS011;29398;45.328;5.558;2023-08-06T03:39:59;2.78;;;1.65;;
7737;SDS011;29398;45.328;5.558;2023-08-06T03:41:02;1.92;;;1.48;;
7737;SDS011;29398;45.328;5.558;2023-08-06T03:42:04;2.33;;;1.60;;
7737;SDS011;29398;45.328;5.558;2023-08-06T03:43:06;3.33;;;1.60;;
7737;SDS011;29398;45.328;5.558;2023-08-06T03:44:08;4.07;;;2.05;;
7737;SDS011;29398;45.328;5.558;2023-08-06T03:45:09;2.38;;;1.85;;
7737;SDS011;29398;45.328;5.558;2023-08-06T03:46:12;3.13;;;2.20;;
7737;SDS011;29398;45.328;5.558;2023-08-06T03:47:14;2.30;;;1.65;;
7737;SDS011;29398;45.328;5.558;2023-08-06T03:48:16;3.35;;;1.85;;
7737;SDS011;29398;45.328;5.558;2023-08-06T03:49:18;2.88;;;1.98;;
7737;SDS011;29398;45.328;5.558;2023-08-06T03:50:21;3.78;;;1.98;;
7737;SDS011;29398;45.328;5.558;2023-08-06T03:51:24;3.30;;;2.05;;
7737;SDS011;29398;45.328;5.558;2023-08-06T03:52:26;2.78;;;1.90;;
7737;SDS011;29398;45.328;5.558;2023-08-06T03:53:28;2.65;;;1.92;;
7737;SDS011;29398;45.328;5.558;2023-08-06T03:54:30;2.88;;;1.88;;
7737;SDS011;29398;45.328;5.558;2023-08-06T03:55:32;3.67;;;1.90;;
7737;SDS011;29398;45.328;5.558;2023-08-06T03:56:35;5.13;;;2.10;;
7737;SDS011;29398;45.328;5.558;2023-08-06T03:57:37;2.80;;;1.98;;
7737;SDS011;29398;45.328;5.558;2023-08-06T03:58:38;2.83;;;2.05;;
7737;SDS011;29398;45.328;5.558;2023-08-06T03:59:42;3.50;;;1.90;;
7737;SDS011;29398;45.328;5.558;2023-08-06T04:00:43;3.38;;;1.73;;
7737;SDS011;29398;45.328;5.558;2023-08-06T04:01:45;3.58;;;1.80;;
7737;SDS011;29398;45.328;5.558;2023-08-06T04:02:47;2.78;;;1.75;;
7737;SDS011;29398;45.328;5.558;2023-08-06T04:03:49;2.92;;;1.60;;
7737;SDS011;29398;45.328;5.558;2023-08-06T04:04:51;2.83;;;1.73;;
7737;SDS011;29398;45.328;5.558;2023-08-06T04:05:54;2.50;;;1.65;;
7737;SDS011;29398;45.328;5.558;2023-08-06T04:06:56;2.78;;;1.50;;
7737;SDS011;29398;45.328;5.558;2023-08-06T04:07:57;2.33;;;1.40;;
7737;SDS011;29398;45.328;5.558;2023-08-06T04:09:00;3.47;;;1.58;;
7737;SDS011;29398;45.328;5.558;2023-08-06T04:10:02;3.28;;;1.80;;
7737;SDS011;29398;45.328;5.558;2023-08-06T04:11:05;4.07;;;1.85;;
7737;SDS011;29398;45.328;5.558;2023-08-06T04:12:08;2.17;;;1.23;;
7737;SDS011;29398;45.328;5.558;2023-08-06T04:13:10;3.92;;;2.10;;
7737;SDS011;29398;45.328;5.558;2023-08-06T04:14:12;2.83;;;1.48;;
7737;SDS011;29398;45.328;5.558;2023-08-06T04:15:14;2.08;;;1.38;;
7737;SDS011;29398;45.328;5.558;2023-08-06T04:16:15;3.33;;;1.50;;
7737;SDS011;29398;45.328;5.558;2023-08-06T04:17:16;3.65;;;1.40;;
7737;SDS011;29398;45.328;5.558;2023-08-06T04:18:20;2.58;;;1.83;;
7737;SDS011;29398;45.328;5.558;2023-08-06T04:19:22;3.20;;;1.65;;
7737;SDS011;29398;45.328;5.558;2023-08-06T04:20:25;4.47;;;1.40;;
7737;SDS011;29398;45.328;5.558;2023-08-06T04:21:26;2.33;;;1.42;;
7737;SDS011;29398;45.328;5.558;2023-08-06T04:22:28;2.13;;;1.50;;
7737;SDS011;29398;45.328;5.558;2023-08-06T04:23:29;3.33;;;1.45;;
7737;SDS011;29398;45.328;5.558;2023-08-06T04:24:35;3.25;;;1.40;;
7737;SDS011;29398;45.328;5.558;2023-08-06T04:25:37;2.63;;;1.30;;
7737;SDS011;29398;45.328;5.558;2023-08-06T04:26:38;3.67;;;1.60;;
7737;SDS011;29398;45.328;5.558;2023-08-06T04:27:42;3.22;;;1.40;;
7737;SDS011;29398;45.328;5.558;2023-08-06T04:28:44;2.13;;;1.20;;
7737;SDS011;29398;45.328;5.558;2023-08-06T04:29:46;1.60;;;1.23;;
7737;SDS011;29398;45.328;5.558;2023-08-06T04:30:47;4.18;;;1.38;;
7737;SDS011;29398;45.328;5.558;2023-08-06T04:31:49;2.55;;;1.30;;
7737;SDS011;29398;45.328;5.558;2023-08-06T04:32:50;1.58;;;1.20;;
7737;SDS011;29398;45.328;5.558;2023-08-06T04:33:52;1.92;;;1.20;;
7737;SDS011;29398;45.328;5.558;2023-08-06T04:34:55;3.08;;;1.30;;
7737;SDS011;29398;45.328;5.558;2023-08-06T04:35:59;1.73;;;1.13;;
7737;SDS011;29398;45.328;5.558;2023-08-06T04:37:01;2.25;;;1.17;;
7737;SDS011;29398;45.328;5.558;2023-08-06T04:38:02;2.35;;;1.10;;
7737;SDS011;29398;45.328;5.558;2023-08-06T04:39:05;2.83;;;1.27;;
7737;SDS011;29398;45.328;5.558;2023-08-06T04:40:07;1.75;;;1.30;;
7737;SDS011;29398;45.328;5.558;2023-08-06T04:41:10;1.48;;;1.08;;
7737;SDS011;29398;45.328;5.558;2023-08-06T04:42:11;1.63;;;1.13;;
7737;SDS011;29398;45.328;5.558;2023-08-06T04:43:15;2.17;;;1.10;;
7737;SDS011;29398;45.328;5.558;2023-08-06T04:44:16;1.77;;;1.13;;
7737;SDS011;29398;45.328;5.558;2023-08-06T04:45:18;2.05;;;1.10;;
7737;SDS011;29398;45.328;5.558;2023-08-06T04:46:19;2.25;;;1.00;;
7737;SDS011;29398;45.328;5.558;2023-08-06T04:47:22;1.73;;;1.20;;
7737;SDS011;29398;45.328;5.558;2023-08-06T04:48:23;2.20;;;1.25;;
7737;SDS011;29398;45.328;5.558;2023-08-06T04:49:24;2.60;;;1.20;;
7737;SDS011;29398;45.328;5.558;2023-08-06T04:50:26;3.47;;;1.35;;
7737;SDS011;29398;45.328;5.558;2023-08-06T04:51:27;2.95;;;1.45;;
7737;SDS011;29398;45.328;5.558;2023-08-06T04:52:29;1.70;;;1.13;;
7737;SDS011;29398;45.328;5.558;2023-08-06T04:53:32;2.45;;;1.35;;
7737;SDS011;29398;45.328;5.558;2023-08-06T04:54:34;3.67;;;1.35;;
7737;SDS011;29398;45.328;5.558;2023-08-06T04:55:35;2.17;;;1.27;;
7737;SDS011;29398;45.328;5.558;2023-08-06T04:56:38;1.95;;;1.30;;
7737;SDS011;29398;45.328;5.558;2023-08-06T04:57:39;4.68;;;1.33;;
7737;SDS011;29398;45.328;5.558;2023-08-06T04:58:42;1.48;;;1.13;;
7737;SDS011;29398;45.328;5.558;2023-08-06T04:59:43;2.20;;;1.38;;
7737;SDS011;29398;45.328;5.558;2023-08-06T05:00:45;2.13;;;1.13;;
7737;SDS011;29398;45.328;5.558;2023-08-06T05:01:46;3.15;;;1.52;;
7737;SDS011;29398;45.328;5.558;2023-08-06T05:02:48;2.88;;;1.30;;
7737;SDS011;29398;45.328;5.558;2023-08-06T05:03:50;4.05;;;1.55;;
7737;SDS011;29398;45.328;5.558;2023-08-06T05:04:53;1.98;;;1.30;;
7737;SDS011;29398;45.328;5.558;2023-08-06T05:05:54;4.60;;;1.48;;
7737;SDS011;29398;45.328;5.558;2023-08-06T05:06:57;2.78;;;1.23;;
7737;SDS011;29398;45.328;5.558;2023-08-06T05:07:58;4.20;;;1.50;;
7737;SDS011;29398;45.328;5.558;2023-08-06T05:09:00;5.78;;;1.65;;
7737;SDS011;29398;45.328;5.558;2023-08-06T05:10:01;2.80;;;1.30;;
7737;SDS011;29398;45.328;5.558;2023-08-06T05:11:04;2.78;;;1.23;;
7737;SDS011;29398;45.328;5.558;2023-08-06T05:12:06;2.78;;;1.40;;
7737;SDS011;29398;45.328;5.558;2023-08-06T05:13:08;3.50;;;1.38;;
7737;SDS011;29398;45.328;5.558;2023-08-06T05:14:10;1.67;;;1.20;;
7737;SDS011;29398;45.328;5.558;2023-08-06T05:15:13;2.67;;;1.25;;
7737;SDS011;29398;45.328;5.558;2023-08-06T05:16:14;2.08;;;1.00;;
7737;SDS011;29398;45.328;5.558;2023-08-06T05:17:16;2.53;;;1.20;;
7737;SDS011;29398;45.328;5.558;2023-08-06T05:18:17;2.80;;;1.15;;
7737;SDS011;29398;45.328;5.558;2023-08-06T05:19:19;1.55;;;1.27;;
7737;SDS011;29398;45.328;5.558;2023-08-06T05:20:20;3.75;;;1.20;;
7737;SDS011;29398;45.328;5.558;2023-08-06T05:21:22;3.63;;;1.35;;
7737;SDS011;29398;45.328;5.558;2023-08-06T05:22:23;2.38;;;1.30;;
7737;SDS011;29398;45.328;5.558;2023-08-06T05:23:26;2.95;;;1.25;;
7737;SDS011;29398;45.328;5.558;2023-08-06T05:24:27;5.63;;;1.42;;
7737;SDS011;29398;45.328;5.558;2023-08-06T05:25:29;2.05;;;1.27;;
7737;SDS011;29398;45.328;5.558;2023-08-06T05:26:30;3.03;;;1.20;;
7737;SDS011;29398;45.328;5.558;2023-08-06T05:27:32;2.70;;;1.00;;
7737;SDS011;29398;45.328;5.558;2023-08-06T05:28:33;3.85;;;1.30;;
7737;SDS011;29398;45.328;5.558;2023-08-06T05:29:37;6.40;;;1.33;;
7737;SDS011;29398;45.328;5.558;2023-08-06T05:30:39;1.88;;;1.20;;
7737;SDS011;29398;45.328;5.558;2023-08-06T05:31:41;2.60;;;1.40;;
7737;SDS011;29398;45.328;5.558;2023-08-06T05:32:42;3.75;;;1.15;;
7737;SDS011;29398;45.328;5.558;2023-08-06T05:33:43;3.05;;;1.38;;
7737;SDS011;29398;45.328;5.558;2023-08-06T05:34:45;2.83;;;1.13;;
7737;SDS011;29398;45.328;5.558;2023-08-06T05:35:46;3.00;;;1.20;;
7737;SDS011;29398;45.328;5.558;2023-08-06T05:36:50;4.43;;;1.48;;
7737;SDS011;29398;45.328;5.558;2023-08-06T05:37:51;1.77;;;0.95;;
7737;SDS011;29398;45.328;5.558;2023-08-06T05:38:53;4.05;;;1.35;;
7737;SDS011;29398;45.328;5.558;2023-08-06T05:39:54;3.97;;;1.48;;
7737;SDS011;29398;45.328;5.558;2023-08-06T05:40:56;4.57;;;1.40;;
7737;SDS011;29398;45.328;5.558;2023-08-06T05:41:58;2.50;;;1.10;;
7737;SDS011;29398;45.328;5.558;2023-08-06T05:43:00;3.47;;;1.40;;
7737;SDS011;29398;45.328;5.558;2023-08-06T05:44:01;4.20;;;1.33;;
7737;SDS011;29398;45.328;5.558;2023-08-06T05:45:05;3.83;;;1.33;;
7737;SDS011;29398;45.328;5.558;2023-08-06T05:46:06;7.30;;;1.77;;
7737;SDS011;29398;45.328;5.558;2023-08-06T05:47:08;3.72;;;1.30;;
7737;SDS011;29398;45.328;5.558;2023-08-06T05:48:10;1.80;;;1.15;;
7737;SDS011;29398;45.328;5.558;2023-08-06T05:49:12;2.42;;;1.20;;
7737;SDS011;29398;45.328;5.558;2023-08-06T05:50:14;2.75;;;1.30;;
7737;SDS011;29398;45.328;5.558;2023-08-06T05:51:16;3.65;;;1.65;;
7737;SDS011;29398;45.328;5.558;2023-08-06T05:52:17;4.50;;;1.50;;
7737;SDS011;29398;45.328;5.558;2023-08-06T05:53:19;4.50;;;1.30;;
7737;SDS011;29398;45.328;5.558;2023-08-06T05:54:20;3.55;;;1.20;;
7737;SDS011;29398;45.328;5.558;2023-08-06T05:55:22;4.15;;;1.30;;
7737;SDS011;29398;45.328;5.558;2023-08-06T05:56:23;3.25;;;1.45;;
7737;SDS011;29398;45.328;5.558;2023-08-06T05:57:25;2.88;;;1.13;;
7737;SDS011;29398;45.328;5.558;2023-08-06T05:58:26;4.18;;;1.10;;
7737;SDS011;29398;45.328;5.558;2023-08-06T05:59:29;4.97;;;1.58;;
7737;SDS011;29398;45.328;5.558;2023-08-06T06:00:32;4.60;;;1.80;;
7737;SDS011;29398;45.328;5.558;2023-08-06T06:01:35;3.47;;;1.33;;
7737;SDS011;29398;45.328;5.558;2023-08-06T06:02:36;6.35;;;1.50;;
7737;SDS011;29398;45.328;5.558;2023-08-06T06:03:38;3.88;;;1.60;;
7737;SDS011;29398;45.328;5.558;2023-08-06T06:04:40;6.35;;;1.60;;
7737;SDS011;29398;45.328;5.558;2023-08-06T06:05:42;3.70;;;1.50;;
7737;SDS011;29398;45.328;5.558;2023-08-06T06:06:44;6.00;;;1.95;;
7737;SDS011;29398;45.328;5.558;2023-08-06T06:07:46;5.38;;;1.85;;
7737;SDS011;29398;45.328;5.558;2023-08-06T06:08:47;5.53;;;1.65;;
7737;SDS011;29398;45.328;5.558;2023-08-06T06:09:49;6.15;;;1.55;;
7737;SDS011;29398;45.328;5.558;2023-08-06T06:10:50;5.60;;;1.45;;
7737;SDS011;29398;45.328;5.558;2023-08-06T06:11:52;2.60;;;0.98;;
7737;SDS011;29398;45.328;5.558;2023-08-06T06:12:53;5.43;;;1.98;;
7737;SDS011;29398;45.328;5.558;2023-08-06T06:13:55;3.45;;;1.30;;
7737;SDS011;29398;45.328;5.558;2023-08-06T06:14:57;6.13;;;1.58;;
7737;SDS011;29398;45.328;5.558;2023-08-06T06:16:01;4.43;;;1.65;;
7737;SDS011;29398;45.328;5.558;2023-08-06T06:17:03;5.80;;;1.50;;
7737;SDS011;29398;45.328;5.558;2023-08-06T06:18:04;7.68;;;2.08;;
7737;SDS011;29398;45.328;5.558;2023-08-06T06:19:07;8.27;;;1.83;;
7737;SDS011;29398;45.328;5.558;2023-08-06T06:20:08;7.00;;;1.88;;
7737;SDS011;29398;45.328;5.558;2023-08-06T06:21:10;5.72;;;1.88;;
7737;SDS011;29398;45.328;5.558;2023-08-06T06:22:11;4.85;;;1.30;;
7737;SDS011;29398;45.328;5.558;2023-08-06T06:23:14;6.15;;;1.58;;